Bergen, New York
Current Conditions -  °F | °C
As of 2:54 PM on Saturday 25 Oct 2014 (Local Time) from KROC Reporting Station
Broken Clouds Broken Clouds  
Wind Chill: 66°   Ceiling: 4500
Heat Index: 66°   Visibility: 10mi
Dew Point: 48°   Wind: 26mph
Humidity: 52%   Direction: 250°WSW
Pressure: 29.59"   Gusts: 38mph
Location:  43.09°N, 77.94°W
Report Text: KROC 251854Z 25023G33KT 10SM BKN045 BKN060 19/09 A2959 RMK AO2 PK WND 25033/1854 SLP022 T01890089
Loading
Personal Weather Stations






























Interactive Weather Map
Tropical Storm Tracking
New forecast layout! Learn more

10-Day Weather Forecast

Advertisements
Track Severe Weather on mobile